createdAt,value
2023-05-16T00:00:06.385Z,4.31
2023-05-16T00:01:08.312Z,4.71
2023-05-16T00:02:10.036Z,4.36
2023-05-16T00:03:12.027Z,4.23
2023-05-16T00:04:14.233Z,4.67
2023-05-16T00:05:16.088Z,4.23
2023-05-16T00:06:17.898Z,4.64
2023-05-16T00:07:19.758Z,4.43
2023-05-16T00:08:21.561Z,4.25
2023-05-16T00:09:23.380Z,4.01
2023-05-16T00:10:25.340Z,4.43
2023-05-16T00:11:27.412Z,4.43
2023-05-16T00:12:29.113Z,4.25
2023-05-16T00:13:30.819Z,4.21
2023-05-16T00:14:32.516Z,4.59
2023-05-16T00:15:34.214Z,4.38
2023-05-16T00:16:36.046Z,4.43
2023-05-16T00:17:37.840Z,4.45
2023-05-16T00:18:39.674Z,3.95
2023-05-16T00:19:41.425Z,4.19
2023-05-16T00:20:43.234Z,5.09
2023-05-16T00:21:44.961Z,4.76
2023-05-16T00:22:46.646Z,4.60
2023-05-16T00:23:48.331Z,4.42
2023-05-16T00:24:50.034Z,4.23
2023-05-16T00:25:51.710Z,4.85
2023-05-16T00:26:53.658Z,4.54
2023-05-16T00:27:55.376Z,4.39
2023-05-16T00:28:57.053Z,4.91
2023-05-16T00:29:58.747Z,4.66
2023-05-16T00:31:00.528Z,4.62
2023-05-16T00:32:02.311Z,4.45
2023-05-16T00:33:04.125Z,5.13
2023-05-16T00:34:06.084Z,4.89
2023-05-16T00:35:07.839Z,4.71
2023-05-16T00:36:09.843Z,4.99
2023-05-16T00:37:11.672Z,4.54
2023-05-16T00:38:13.471Z,5.24
2023-05-16T00:39:15.251Z,5.15
2023-05-16T00:40:17.061Z,4.65
2023-05-16T00:41:18.763Z,5.44
2023-05-16T00:42:20.610Z,5.44
2023-05-16T00:43:22.310Z,5.81
2023-05-16T00:44:24.092Z,5.21
2023-05-16T00:45:25.894Z,5.47
2023-05-16T00:46:27.864Z,5.89
2023-05-16T00:47:29.747Z,5.51
2023-05-16T00:48:31.512Z,5.62
2023-05-16T00:49:33.202Z,5.26
2023-05-16T00:50:34.994Z,5.17
2023-05-16T00:51:36.781Z,5.74
2023-05-16T00:52:38.520Z,5.39
2023-05-16T00:53:40.380Z,5.40
2023-05-16T00:54:42.008Z,5.47
2023-05-16T00:55:43.807Z,5.97
2023-05-16T00:56:45.606Z,5.27
2023-05-16T00:57:47.440Z,5.63
2023-05-16T00:58:49.229Z,5.07
2023-05-16T00:59:51.012Z,5.26
2023-05-16T01:00:52.809Z,5.91
2023-05-16T01:01:54.570Z,5.47
2023-05-16T01:02:56.428Z,5.58
2023-05-16T01:03:58.429Z,6.15
2023-05-16T01:05:00.344Z,5.37
2023-05-16T01:06:02.150Z,5.09
2023-05-16T01:07:03.937Z,5.56
2023-05-16T01:08:05.665Z,5.63
2023-05-16T01:09:07.462Z,5.35
2023-05-16T01:10:09.958Z,6.00
2023-05-16T01:11:11.644Z,5.88
2023-05-16T01:12:13.337Z,6.20
2023-05-16T01:13:15.066Z,5.52
2023-05-16T01:14:16.758Z,5.69
2023-05-16T01:15:18.450Z,5.59
2023-05-16T01:16:20.318Z,6.05
2023-05-16T01:17:22.147Z,6.32
2023-05-16T01:18:23.871Z,5.72
2023-05-16T01:19:25.695Z,6.41
2023-05-16T01:20:27.658Z,6.59
2023-05-16T01:21:29.445Z,6.39
2023-05-16T01:22:31.242Z,6.18
2023-05-16T01:23:32.955Z,5.73
2023-05-16T01:24:34.645Z,6.09
2023-05-16T01:25:36.333Z,5.57
2023-05-16T01:26:38.135Z,5.21
2023-05-16T01:27:39.847Z,6.29
2023-05-16T01:28:41.676Z,5.64
2023-05-16T01:29:43.470Z,6.02
2023-05-16T01:30:45.469Z,5.44
2023-05-16T01:31:47.316Z,5.21
2023-05-16T01:32:49.255Z,5.47
2023-05-16T01:33:51.021Z,4.93
2023-05-16T01:34:52.693Z,5.06
2023-05-16T01:35:54.389Z,4.95
2023-05-16T01:36:56.282Z,5.91
2023-05-16T01:37:57.966Z,4.99
2023-05-16T01:38:59.783Z,4.97
2023-05-16T01:40:01.578Z,4.61
2023-05-16T01:41:03.283Z,4.77
2023-05-16T01:42:04.967Z,4.55
2023-05-16T01:43:06.774Z,4.35
2023-05-16T01:44:08.558Z,4.58
2023-05-16T01:45:10.310Z,4.43
2023-05-16T01:46:12.341Z,4.65
2023-05-16T01:47:14.275Z,4.27
2023-05-16T01:48:16.135Z,4.81
2023-05-16T01:49:17.931Z,4.43
2023-05-16T01:50:19.832Z,4.95
2023-05-16T01:51:21.547Z,5.16
2023-05-16T01:52:23.331Z,4.92
2023-05-16T01:53:25.022Z,4.82
2023-05-16T01:54:26.860Z,4.76
2023-05-16T01:55:28.665Z,4.67
2023-05-16T01:56:30.625Z,4.80
2023-05-16T01:57:32.309Z,5.21
2023-05-16T01:58:34.010Z,4.76
2023-05-16T01:59:35.837Z,5.00
2023-05-16T02:00:37.698Z,4.95
2023-05-16T02:01:39.707Z,4.68
2023-05-16T02:02:41.589Z,4.65
2023-05-16T02:03:43.456Z,4.62
2023-05-16T02:04:45.266Z,4.87
2023-05-16T02:05:46.949Z,4.72
2023-05-16T02:06:48.746Z,4.24
2023-05-16T02:07:50.432Z,4.60
2023-05-16T02:08:52.125Z,4.59
2023-05-16T02:09:53.872Z,4.51
2023-05-16T02:10:55.878Z,5.17
2023-05-16T02:11:57.677Z,5.11
2023-05-16T02:12:59.545Z,5.31
2023-05-16T02:14:01.304Z,4.84
2023-05-16T02:15:03.052Z,4.09
2023-05-16T02:16:04.960Z,4.52
2023-05-16T02:17:06.763Z,5.14
2023-05-16T02:18:08.731Z,5.95
2023-05-16T02:19:10.570Z,5.29
2023-05-16T02:20:13.014Z,5.05
2023-05-16T02:21:14.665Z,5.07
2023-05-16T02:22:16.367Z,5.22
2023-05-16T02:23:18.060Z,4.56
2023-05-16T02:24:19.895Z,5.24
2023-05-16T02:25:21.701Z,4.81
2023-05-16T02:26:23.500Z,4.87
2023-05-16T02:27:25.303Z,4.67
2023-05-16T02:28:27.007Z,4.57
2023-05-16T02:29:28.711Z,4.95
2023-05-16T02:30:30.655Z,5.05
2023-05-16T02:31:32.731Z,4.85
2023-05-16T02:32:34.684Z,4.69
2023-05-16T02:33:36.351Z,4.54
2023-05-16T02:34:38.151Z,5.14
2023-05-16T02:35:39.885Z,5.29
2023-05-16T02:36:41.792Z,5.16
2023-05-16T02:37:43.558Z,6.07
2023-05-16T02:38:45.209Z,7.44
2023-05-16T02:39:47.046Z,10.51
2023-05-16T02:40:48.889Z,9.18
2023-05-16T02:41:50.591Z,7.81
2023-05-16T02:42:52.391Z,7.93
2023-05-16T02:43:54.096Z,6.97
2023-05-16T02:44:55.898Z,6.21
2023-05-16T02:45:57.682Z,5.70
2023-05-16T02:46:59.642Z,5.89
2023-05-16T02:48:01.514Z,5.77
2023-05-16T02:49:03.344Z,6.00
2023-05-16T02:50:05.350Z,5.49
2023-05-16T02:51:07.201Z,5.51
2023-05-16T02:52:09.016Z,5.47
2023-05-16T02:53:10.741Z,5.35
2023-05-16T02:54:12.544Z,5.93
2023-05-16T02:55:21.686Z,5.84
2023-05-16T02:56:17.994Z,6.20
2023-05-16T02:57:19.672Z,6.08
2023-05-16T02:58:21.476Z,6.86
2023-05-16T02:59:23.167Z,14.27
2023-05-16T03:00:24.973Z,8.31
2023-05-16T03:01:27.559Z,6.17
2023-05-16T03:02:29.322Z,6.21
2023-05-16T03:03:31.293Z,6.16
2023-05-16T03:04:33.039Z,6.91
2023-05-16T03:05:34.853Z,8.44
2023-05-16T03:06:36.794Z,14.76
2023-05-16T03:07:38.608Z,17.54
2023-05-16T03:08:40.398Z,16.49
2023-05-16T03:09:42.092Z,17.05
2023-05-16T03:10:43.903Z,15.98
2023-05-16T03:11:45.761Z,16.83
2023-05-16T03:12:47.454Z,16.89
2023-05-16T03:13:49.249Z,15.78
2023-05-16T03:14:50.954Z,15.99
2023-05-16T03:15:52.680Z,13.66
2023-05-16T03:16:54.583Z,14.84
2023-05-16T03:17:56.321Z,14.11
2023-05-16T03:18:58.151Z,15.62
2023-05-16T03:19:59.886Z,15.26
2023-05-16T03:21:01.559Z,14.78
2023-05-16T03:22:03.291Z,14.31
2023-05-16T03:23:04.980Z,14.11
2023-05-16T03:24:06.828Z,15.31
2023-05-16T03:25:08.805Z,16.21
2023-05-16T03:26:10.709Z,15.57
2023-05-16T03:27:12.435Z,15.01
2023-05-16T03:28:15.458Z,14.04
2023-05-16T03:29:17.385Z,14.16
2023-05-16T03:30:19.188Z,13.73
2023-05-16T03:31:21.016Z,11.11
2023-05-16T03:32:23.089Z,11.68
2023-05-16T03:33:24.838Z,11.37
2023-05-16T03:34:26.630Z,10.36
2023-05-16T03:35:28.783Z,10.81
2023-05-16T03:36:30.957Z,9.90
2023-05-16T03:37:32.816Z,10.10
2023-05-16T03:38:34.526Z,10.48
2023-05-16T03:39:36.212Z,9.66
2023-05-16T03:40:38.038Z,10.43
2023-05-16T03:41:39.724Z,10.17
2023-05-16T03:42:41.554Z,9.54
2023-05-16T03:43:43.264Z,9.85
2023-05-16T03:44:44.970Z,9.67
2023-05-16T03:45:46.830Z,9.26
2023-05-16T03:46:48.676Z,9.41
2023-05-16T03:47:50.527Z,8.57
2023-05-16T03:48:52.230Z,8.65
2023-05-16T03:49:53.940Z,9.33
2023-05-16T03:50:55.747Z,9.41
2023-05-16T03:51:57.542Z,9.17
2023-05-16T03:52:59.262Z,8.82
2023-05-16T03:54:01.053Z,8.52
2023-05-16T03:55:02.751Z,9.09
2023-05-16T03:56:04.658Z,9.08
2023-05-16T03:57:06.370Z,9.07
2023-05-16T03:58:08.202Z,8.64
2023-05-16T03:59:09.981Z,8.86
2023-05-16T04:00:11.882Z,9.37
2023-05-16T04:01:13.713Z,10.11
2023-05-16T04:02:18.107Z,10.49
2023-05-16T04:03:21.839Z,10.47
2023-05-16T04:04:24.012Z,10.59
2023-05-16T04:05:26.086Z,10.98
2023-05-16T04:06:28.220Z,10.93
2023-05-16T04:07:29.914Z,11.77
2023-05-16T04:08:31.762Z,10.23
2023-05-16T04:09:33.462Z,10.68
2023-05-16T04:10:35.368Z,13.52
2023-05-16T04:11:37.077Z,14.29
2023-05-16T04:12:38.940Z,14.29
2023-05-16T04:13:40.713Z,11.07
2023-05-16T04:14:42.523Z,12.07
2023-05-16T04:15:44.211Z,13.09
2023-05-16T04:16:46.085Z,13.40
2023-05-16T04:17:47.869Z,12.33
2023-05-16T04:18:49.787Z,12.13
2023-05-16T04:19:51.465Z,9.69
2023-05-16T04:20:53.366Z,9.60
2023-05-16T04:21:55.069Z,8.79
2023-05-16T04:22:56.882Z,8.73
2023-05-16T04:23:58.618Z,8.63
2023-05-16T04:25:00.307Z,9.24
2023-05-16T04:26:02.104Z,8.59
2023-05-16T04:27:03.910Z,8.39
2023-05-16T04:28:05.608Z,9.80
2023-05-16T04:29:07.362Z,9.78
2023-05-16T04:30:09.470Z,10.63
2023-05-16T04:31:11.331Z,9.82
2023-05-16T04:32:13.070Z,8.89
2023-05-16T04:33:14.950Z,9.27
2023-05-16T04:34:16.805Z,9.99
2023-05-16T04:35:18.610Z,9.19
2023-05-16T04:36:20.420Z,8.33
2023-05-16T04:37:22.231Z,10.11
2023-05-16T04:38:23.918Z,12.09
2023-05-16T04:39:25.732Z,13.26
2023-05-16T04:40:27.747Z,11.59
2023-05-16T04:41:29.615Z,11.41
2023-05-16T04:42:31.399Z,9.81
2023-05-16T04:43:33.096Z,25.48
2023-05-16T04:44:34.928Z,62.43
2023-05-16T04:45:37.659Z,48.97
2023-05-16T04:46:39.881Z,30.61
2023-05-16T04:47:41.716Z,35.35
2023-05-16T04:48:43.514Z,19.21
2023-05-16T04:49:45.243Z,19.36
2023-05-16T04:50:47.152Z,9.59
2023-05-16T04:51:48.851Z,9.81
2023-05-16T04:52:50.618Z,8.10
2023-05-16T04:53:52.413Z,8.59
2023-05-16T04:54:54.118Z,8.92
2023-05-16T04:55:55.976Z,8.80
2023-05-16T04:56:58.023Z,8.83
2023-05-16T04:57:59.836Z,8.48
2023-05-16T04:59:01.627Z,8.50
2023-05-16T05:00:03.571Z,7.81
2023-05-16T05:01:05.359Z,8.89
2023-05-16T05:02:07.322Z,8.83
2023-05-16T05:03:09.195Z,8.33
2023-05-16T05:04:11.048Z,8.69
2023-05-16T05:05:12.832Z,9.05
2023-05-16T05:06:14.892Z,9.02
2023-05-16T05:07:16.696Z,8.76
2023-05-16T05:08:18.387Z,9.06
2023-05-16T05:09:20.181Z,8.97
2023-05-16T05:10:22.023Z,9.21
2023-05-16T05:11:23.813Z,9.43
2023-05-16T05:12:25.511Z,9.81
2023-05-16T05:13:27.358Z,12.95
2023-05-16T05:14:29.243Z,12.31
2023-05-16T05:15:31.065Z,14.84
2023-05-16T05:16:32.937Z,21.59
2023-05-16T05:17:34.835Z,35.71
2023-05-16T05:18:36.883Z,14.67
2023-05-16T05:19:38.756Z,11.26
2023-05-16T05:20:40.664Z,8.95
2023-05-16T05:21:42.388Z,8.04
2023-05-16T05:22:44.159Z,8.41
2023-05-16T05:23:45.849Z,8.09
2023-05-16T05:24:47.649Z,6.55
2023-05-16T05:25:49.408Z,5.56
2023-05-16T05:26:51.205Z,6.23
2023-05-16T05:27:53.010Z,6.29
2023-05-16T05:29:04.526Z,6.09
2023-05-16T05:29:58.302Z,5.38
2023-05-16T05:31:00.144Z,5.65
2023-05-16T05:32:01.887Z,5.19
2023-05-16T05:33:03.797Z,5.90
2023-05-16T05:34:05.647Z,6.00
2023-05-16T05:35:07.432Z,5.76
2023-05-16T05:36:10.370Z,6.29
2023-05-16T05:37:12.073Z,5.47
2023-05-16T05:38:13.864Z,5.41
2023-05-16T05:39:15.661Z,4.97
2023-05-16T05:40:17.662Z,4.50
2023-05-16T05:41:19.407Z,4.53
2023-05-16T05:42:21.101Z,4.32
2023-05-16T05:43:22.898Z,4.19
2023-05-16T05:44:24.698Z,4.31
2023-05-16T05:45:26.659Z,4.45
2023-05-16T05:46:28.916Z,4.16
2023-05-16T05:47:30.863Z,4.25
2023-05-16T05:48:32.638Z,4.00
2023-05-16T05:49:34.323Z,4.42
2023-05-16T05:50:36.213Z,3.79
2023-05-16T05:51:37.935Z,4.03
2023-05-16T05:52:39.634Z,3.77
2023-05-16T05:53:41.447Z,3.67
2023-05-16T05:54:43.227Z,4.14
2023-05-16T05:55:44.911Z,3.86
2023-05-16T05:56:46.834Z,3.57
2023-05-16T05:57:48.623Z,3.71
2023-05-16T05:58:50.433Z,4.58
2023-05-16T05:59:52.145Z,4.19
2023-05-16T06:00:53.917Z,4.34
2023-05-16T06:01:55.644Z,3.97
2023-05-16T06:02:57.425Z,4.09
2023-05-16T06:04:00.774Z,4.19
2023-05-16T06:05:02.832Z,3.84
2023-05-16T06:06:04.864Z,3.69
2023-05-16T06:07:06.850Z,3.88
2023-05-16T06:08:08.535Z,3.45
2023-05-16T06:09:10.239Z,3.83
2023-05-16T06:10:13.232Z,4.08
2023-05-16T06:11:15.019Z,3.77
2023-05-16T06:12:16.844Z,3.61
2023-05-16T06:13:18.624Z,3.77
2023-05-16T06:14:20.433Z,3.88
2023-05-16T06:15:22.480Z,3.64
2023-05-16T06:16:24.333Z,3.63
2023-05-16T06:17:26.138Z,3.99
2023-05-16T06:18:27.901Z,4.26
2023-05-16T06:19:29.588Z,3.98
2023-05-16T06:20:31.400Z,3.77
2023-05-16T06:21:33.194Z,3.78
2023-05-16T06:22:34.932Z,3.63
2023-05-16T06:23:36.625Z,3.69
2023-05-16T06:24:38.333Z,3.98
2023-05-16T06:25:40.142Z,3.96
2023-05-16T06:26:41.924Z,4.00
2023-05-16T06:27:43.744Z,3.65
2023-05-16T06:28:45.438Z,3.73
2023-05-16T06:29:47.135Z,3.85
2023-05-16T06:30:49.032Z,4.10
2023-05-16T06:31:50.925Z,3.86
2023-05-16T06:32:52.920Z,4.13
2023-05-16T06:33:54.865Z,3.85
2023-05-16T06:34:56.779Z,3.74
2023-05-16T06:35:58.516Z,4.23
2023-05-16T06:37:00.412Z,4.43
2023-05-16T06:38:02.248Z,3.52
2023-05-16T06:39:04.038Z,3.97
2023-05-16T06:40:05.835Z,4.33
2023-05-16T06:41:07.635Z,4.23
2023-05-16T06:42:09.562Z,3.71
2023-05-16T06:43:11.516Z,3.99
2023-05-16T06:44:13.264Z,3.73
2023-05-16T06:45:15.116Z,3.81
2023-05-16T06:46:17.297Z,4.29
2023-05-16T06:47:19.217Z,3.95
2023-05-16T06:48:21.149Z,3.94
2023-05-16T06:49:23.023Z,4.49
2023-05-16T06:50:24.873Z,3.87
2023-05-16T06:51:26.831Z,3.79
2023-05-16T06:52:28.685Z,4.24
2023-05-16T06:53:30.640Z,3.78
2023-05-16T06:54:32.597Z,3.99
2023-05-16T06:55:34.772Z,4.26
2023-05-16T06:56:36.793Z,4.67
2023-05-16T06:57:38.699Z,5.13
2023-05-16T06:58:40.464Z,4.27
2023-05-16T06:59:42.346Z,8.50
2023-05-16T07:00:44.198Z,5.56
2023-05-16T07:01:46.278Z,4.29
2023-05-16T07:02:48.485Z,4.68
2023-05-16T07:03:50.495Z,5.23
2023-05-16T07:04:52.417Z,4.81
2023-05-16T07:05:54.368Z,4.45
2023-05-16T07:06:56.334Z,4.35
2023-05-16T07:07:58.291Z,4.48
2023-05-16T07:09:00.555Z,4.00
2023-05-16T07:10:02.393Z,3.91
2023-05-16T07:11:04.343Z,3.69
2023-05-16T07:12:06.702Z,4.49
2023-05-16T07:13:08.613Z,3.77
2023-05-16T07:14:10.624Z,4.29
2023-05-16T07:15:12.567Z,3.79
2023-05-16T07:16:14.871Z,3.91
2023-05-16T07:17:16.768Z,3.99
2023-05-16T07:18:19.982Z,4.37
2023-05-16T07:19:21.832Z,3.92
2023-05-16T07:20:23.863Z,4.10
2023-05-16T07:21:25.727Z,4.09
2023-05-16T07:22:28.081Z,4.17
2023-05-16T07:23:29.918Z,4.25
2023-05-16T07:24:31.869Z,4.25
2023-05-16T07:25:33.670Z,4.21
2023-05-16T07:26:35.670Z,4.27
2023-05-16T07:27:37.671Z,4.26
2023-05-16T07:28:39.798Z,4.03
2023-05-16T07:29:41.837Z,3.95
2023-05-16T07:30:43.806Z,3.89
2023-05-16T07:31:45.658Z,4.38
2023-05-16T07:32:47.746Z,3.92
2023-05-16T07:33:49.754Z,3.99
2023-05-16T07:34:51.698Z,3.89
2023-05-16T07:36:00.886Z,3.97
2023-05-16T07:36:57.753Z,4.42
2023-05-16T07:37:59.618Z,3.73
2023-05-16T07:39:01.452Z,4.14
2023-05-16T07:40:03.511Z,3.87
2023-05-16T07:41:05.461Z,3.89
2023-05-16T07:42:07.416Z,3.91
2023-05-16T07:43:09.669Z,3.86
2023-05-16T07:44:11.623Z,4.02
2023-05-16T07:45:13.689Z,4.35
2023-05-16T07:46:15.872Z,3.91
2023-05-16T07:47:17.795Z,3.77
2023-05-16T07:48:19.839Z,3.93
2023-05-16T07:49:21.796Z,4.14
2023-05-16T07:50:23.889Z,4.24
2023-05-16T07:51:25.810Z,3.91
2023-05-16T07:52:28.060Z,3.83
2023-05-16T07:53:31.736Z,3.83
2023-05-16T07:54:33.712Z,4.03
2023-05-16T07:55:35.658Z,3.74
2023-05-16T07:56:37.612Z,3.73
2023-05-16T07:57:39.570Z,4.11
2023-05-16T07:58:41.531Z,4.09
2023-05-16T07:59:43.513Z,3.73
2023-05-16T08:00:45.518Z,4.03
2023-05-16T08:01:47.485Z,4.09
2023-05-16T08:02:49.490Z,3.82
2023-05-16T08:03:51.468Z,3.70
2023-05-16T08:04:53.455Z,4.16
2023-05-16T08:05:55.549Z,3.70
2023-05-16T08:06:57.749Z,4.03
2023-05-16T08:07:59.603Z,4.02
2023-05-16T08:09:01.478Z,3.85
2023-05-16T08:10:03.402Z,3.99
2023-05-16T08:11:05.357Z,4.57
2023-05-16T08:12:07.205Z,4.86
2023-05-16T08:13:09.060Z,5.10
2023-05-16T08:14:11.038Z,4.93
2023-05-16T08:15:12.967Z,4.96
2023-05-16T08:16:15.488Z,4.96
2023-05-16T08:17:17.379Z,4.74
2023-05-16T08:18:22.087Z,4.95
2023-05-16T08:19:23.154Z,4.65
2023-05-16T08:20:27.940Z,4.58
2023-05-16T08:21:29.902Z,6.15
2023-05-16T08:22:32.678Z,8.91
2023-05-16T08:23:34.543Z,10.09
2023-05-16T08:24:36.384Z,9.08
2023-05-16T08:25:38.324Z,8.98
2023-05-16T08:26:40.276Z,8.56
2023-05-16T08:27:42.127Z,9.57
2023-05-16T08:28:44.083Z,10.06
2023-05-16T08:29:46.036Z,11.59
2023-05-16T08:30:48.254Z,10.15
2023-05-16T08:31:50.260Z,10.67
2023-05-16T08:32:52.216Z,11.43
2023-05-16T08:33:54.150Z,10.00
2023-05-16T08:34:55.906Z,9.61
2023-05-16T08:35:58.969Z,9.88
2023-05-16T08:37:00.922Z,9.64
2023-05-16T08:38:02.875Z,9.54
2023-05-16T08:39:04.872Z,10.79
2023-05-16T08:40:07.086Z,10.64
2023-05-16T08:41:09.036Z,11.34
2023-05-16T08:42:10.990Z,11.65
2023-05-16T08:43:12.960Z,11.55
2023-05-16T08:44:15.305Z,11.80
2023-05-16T08:45:17.183Z,10.76
2023-05-16T08:46:19.332Z,11.83
2023-05-16T08:47:21.471Z,11.38
2023-05-16T08:48:23.354Z,11.12
2023-05-16T08:49:25.375Z,11.27
2023-05-16T08:50:27.332Z,10.15
2023-05-16T08:51:29.300Z,9.27
2023-05-16T08:52:31.255Z,7.96
2023-05-16T08:53:33.404Z,8.32
2023-05-16T08:54:35.251Z,7.10
2023-05-16T08:55:37.199Z,9.43
2023-05-16T08:56:39.148Z,7.59
2023-05-16T08:57:40.998Z,7.56
2023-05-16T08:58:42.959Z,6.03
2023-05-16T08:59:44.801Z,5.63
2023-05-16T09:00:46.792Z,5.81
2023-05-16T09:01:48.759Z,6.89
2023-05-16T09:02:50.724Z,5.08
2023-05-16T09:03:52.752Z,4.73
2023-05-16T09:04:54.761Z,5.07
2023-05-16T09:05:56.616Z,4.14
2023-05-16T09:06:58.548Z,4.35
2023-05-16T09:08:00.454Z,5.55
2023-05-16T09:09:02.263Z,4.66
2023-05-16T09:10:04.233Z,3.67
2023-05-16T09:11:06.170Z,3.96
2023-05-16T09:12:08.022Z,4.56
2023-05-16T09:13:09.975Z,4.28
2023-05-16T09:14:11.825Z,3.82
2023-05-16T09:15:13.602Z,3.68
2023-05-16T09:16:15.766Z,3.86
2023-05-16T09:17:20.608Z,3.47
2023-05-16T09:18:21.335Z,3.81
2023-05-16T09:19:23.275Z,3.40
2023-05-16T09:20:25.186Z,4.11
2023-05-16T09:21:27.131Z,3.55
2023-05-16T09:22:29.032Z,3.22
2023-05-16T09:23:30.939Z,3.03
2023-05-16T09:24:32.781Z,3.53
2023-05-16T09:25:34.762Z,3.07
2023-05-16T09:26:36.805Z,3.27
2023-05-16T09:27:38.641Z,2.65
2023-05-16T09:28:40.589Z,2.76
2023-05-16T09:29:42.447Z,2.55
2023-05-16T09:30:44.328Z,2.64
2023-05-16T09:31:46.202Z,2.51
2023-05-16T09:32:48.052Z,2.66
2023-05-16T09:33:49.975Z,2.65
2023-05-16T09:34:51.793Z,2.73
2023-05-16T09:35:53.660Z,2.58
2023-05-16T09:36:55.501Z,3.07
2023-05-16T09:37:57.458Z,2.55
2023-05-16T09:38:59.512Z,2.86
2023-05-16T09:40:01.559Z,2.99
2023-05-16T09:41:03.509Z,2.91
2023-05-16T09:42:05.261Z,2.96
2023-05-16T09:43:07.013Z,2.83
2023-05-16T09:44:08.877Z,2.65
2023-05-16T09:45:10.706Z,3.17
2023-05-16T09:46:12.561Z,2.56
2023-05-16T09:47:14.517Z,2.47
2023-05-16T09:48:16.390Z,2.73
2023-05-16T09:49:18.409Z,2.87
2023-05-16T09:50:20.409Z,2.73
2023-05-16T09:51:22.369Z,2.91
2023-05-16T09:52:24.168Z,3.13
2023-05-16T09:53:26.022Z,3.17
2023-05-16T09:54:27.869Z,2.99
2023-05-16T09:55:29.678Z,2.83
2023-05-16T09:56:31.565Z,2.87
2023-05-16T09:57:33.416Z,2.97
2023-05-16T09:58:35.160Z,2.66
2023-05-16T09:59:37.021Z,3.03
2023-05-16T10:00:38.877Z,3.15
2023-05-16T10:01:40.748Z,2.61
2023-05-16T10:02:42.749Z,2.99
2023-05-16T10:03:44.739Z,3.13
2023-05-16T10:04:46.891Z,3.11
2023-05-16T10:05:48.727Z,2.89
2023-05-16T10:06:50.551Z,3.00
2023-05-16T10:07:52.324Z,3.01
2023-05-16T10:08:54.178Z,3.43
2023-05-16T10:09:56.030Z,2.93
2023-05-16T10:10:58.185Z,2.73
2023-05-16T10:12:00.040Z,2.93
2023-05-16T10:13:01.778Z,3.28
2023-05-16T10:14:04.987Z,3.20
2023-05-16T10:15:07.335Z,3.12
2023-05-16T10:16:09.427Z,3.17
2023-05-16T10:17:11.330Z,3.59
2023-05-16T10:18:13.291Z,3.00
2023-05-16T10:19:15.425Z,3.27
2023-05-16T10:20:17.517Z,3.39
2023-05-16T10:21:19.456Z,2.73
2023-05-16T10:22:21.602Z,3.09
2023-05-16T10:23:23.457Z,3.12
2023-05-16T10:24:25.207Z,2.74
2023-05-16T10:25:27.470Z,2.83
2023-05-16T10:26:29.721Z,2.91
2023-05-16T10:27:31.571Z,2.81
2023-05-16T10:28:33.444Z,3.29
2023-05-16T10:29:43.249Z,2.98
2023-05-16T10:30:39.171Z,3.09
2023-05-16T10:31:40.945Z,2.83
2023-05-16T10:32:43.061Z,3.23
2023-05-16T10:33:44.924Z,3.14
2023-05-16T10:34:46.724Z,3.01
2023-05-16T10:35:48.538Z,3.05
2023-05-16T10:36:50.579Z,2.77
2023-05-16T10:37:52.354Z,3.01
2023-05-16T10:38:54.393Z,3.15
2023-05-16T10:39:56.222Z,3.05
2023-05-16T10:40:58.176Z,2.96
2023-05-16T10:42:00.028Z,3.06
2023-05-16T10:43:04.954Z,2.81
2023-05-16T10:44:06.912Z,2.84
2023-05-16T10:45:08.775Z,3.14
2023-05-16T10:46:12.311Z,2.92
2023-05-16T10:47:14.311Z,3.21
2023-05-16T10:48:16.167Z,3.42
2023-05-16T10:49:18.617Z,2.96
2023-05-16T10:50:20.593Z,2.83
2023-05-16T10:51:22.538Z,3.18
2023-05-16T10:52:24.570Z,3.03
2023-05-16T10:53:26.530Z,3.33
2023-05-16T10:54:28.372Z,2.90
2023-05-16T10:55:30.233Z,3.31
2023-05-16T10:56:32.281Z,2.78
2023-05-16T10:57:34.160Z,3.17
2023-05-16T10:58:37.104Z,3.03
2023-05-16T10:59:39.055Z,3.18
2023-05-16T11:00:40.911Z,3.13
2023-05-16T11:01:42.932Z,3.23
2023-05-16T11:02:44.761Z,3.67
2023-05-16T11:03:46.852Z,2.99
2023-05-16T11:04:48.933Z,3.53
2023-05-16T11:05:50.770Z,2.85
2023-05-16T11:06:52.803Z,2.86
2023-05-16T11:07:54.676Z,2.95
2023-05-16T11:08:56.543Z,3.07
2023-05-16T11:09:58.480Z,2.48
2023-05-16T11:11:00.340Z,3.15
2023-05-16T11:12:02.185Z,3.32
2023-05-16T11:13:07.043Z,3.19
2023-05-16T11:14:08.965Z,3.08
2023-05-16T11:15:10.699Z,2.95
2023-05-16T11:16:13.066Z,3.14
2023-05-16T11:17:15.182Z,2.86
2023-05-16T11:18:17.329Z,2.98
2023-05-16T11:19:19.427Z,3.22
2023-05-16T11:20:21.387Z,2.83
2023-05-16T11:21:23.544Z,2.83
2023-05-16T11:22:25.495Z,3.01
2023-05-16T11:23:27.458Z,3.01
2023-05-16T11:24:29.510Z,3.06
2023-05-16T11:25:31.559Z,2.85
2023-05-16T11:26:33.823Z,2.85
2023-05-16T11:27:35.871Z,2.67
2023-05-16T11:28:37.633Z,3.10
2023-05-16T11:29:39.371Z,3.03
2023-05-16T11:30:41.424Z,2.85
2023-05-16T11:31:43.384Z,3.24
2023-05-16T11:32:45.372Z,2.85
2023-05-16T11:33:47.284Z,3.08
2023-05-16T11:34:49.132Z,2.84
2023-05-16T11:35:51.253Z,2.86
2023-05-16T11:36:54.167Z,2.71
2023-05-16T11:37:56.015Z,2.55
2023-05-16T11:38:57.862Z,2.99
2023-05-16T11:39:59.837Z,3.03
2023-05-16T11:41:01.784Z,2.85
2023-05-16T11:42:03.618Z,2.65
2023-05-16T11:43:07.276Z,3.12
2023-05-16T11:44:12.031Z,2.91
2023-05-16T11:45:13.889Z,2.76
2023-05-16T11:46:17.023Z,3.34
2023-05-16T11:47:19.137Z,3.31
2023-05-16T11:48:32.608Z,3.27
2023-05-16T11:49:24.863Z,3.25
2023-05-16T11:50:26.710Z,3.91
2023-05-16T11:51:28.570Z,3.45
2023-05-16T11:52:30.423Z,3.49
2023-05-16T11:53:32.779Z,3.83
2023-05-16T11:54:34.738Z,3.31
2023-05-16T11:56:40.586Z,3.14
2023-05-16T11:57:42.845Z,3.30
2023-05-16T11:58:44.912Z,3.65
2023-05-16T11:59:46.951Z,3.37
2023-05-16T12:00:48.937Z,3.19
2023-05-16T12:01:50.956Z,3.08
2023-05-16T12:02:52.869Z,3.24
2023-05-16T12:03:54.952Z,3.39
2023-05-16T12:04:57.223Z,3.48
2023-05-16T12:05:59.180Z,4.41
2023-05-16T12:07:01.051Z,3.49
2023-05-16T12:08:03.049Z,3.67
2023-05-16T12:09:04.933Z,3.61
2023-05-16T12:10:06.997Z,4.03
2023-05-16T12:11:09.045Z,4.04
2023-05-16T12:12:10.918Z,4.00
2023-05-16T12:13:12.882Z,3.80
2023-05-16T12:14:14.807Z,4.08
2023-05-16T12:15:16.863Z,4.56
2023-05-16T12:16:18.826Z,3.91
2023-05-16T12:17:20.779Z,4.47
2023-05-16T12:18:22.831Z,4.20
2023-05-16T12:19:26.819Z,4.51
2023-05-16T12:20:28.464Z,4.06
2023-05-16T12:21:30.204Z,4.06
2023-05-16T12:22:32.158Z,4.06
2023-05-16T12:23:34.010Z,4.49
2023-05-16T12:24:35.864Z,4.11
2023-05-16T12:25:37.738Z,4.03
2023-05-16T12:26:39.764Z,3.90
2023-05-16T12:27:42.030Z,4.11
2023-05-16T12:28:44.799Z,3.64
2023-05-16T12:29:46.757Z,4.23
2023-05-16T12:30:48.809Z,4.24
2023-05-16T12:31:50.846Z,3.64
2023-05-16T12:32:53.028Z,3.88
2023-05-16T12:33:55.074Z,3.90
2023-05-16T12:34:57.026Z,4.11
2023-05-16T12:35:58.782Z,3.87
2023-05-16T12:37:00.933Z,3.80
2023-05-16T12:38:04.003Z,3.84
2023-05-16T12:39:05.867Z,3.27
2023-05-16T12:40:08.226Z,2.95
2023-05-16T12:41:10.080Z,2.81
2023-05-16T12:42:11.921Z,2.41
2023-05-16T12:43:13.864Z,2.61
2023-05-16T12:44:15.837Z,2.26
2023-05-16T12:45:17.768Z,2.60
2023-05-16T12:46:19.680Z,2.81
2023-05-16T12:47:21.590Z,2.24
2023-05-16T12:48:23.425Z,2.46
2023-05-16T12:49:25.186Z,2.65
2023-05-16T12:50:27.470Z,2.61
2023-05-16T12:51:29.463Z,2.44
2023-05-16T12:52:31.331Z,2.23
2023-05-16T12:53:33.180Z,2.30
2023-05-16T12:54:35.035Z,2.49
2023-05-16T12:55:36.984Z,2.85
2023-05-16T12:56:38.949Z,3.20
2023-05-16T12:57:40.781Z,2.83
2023-05-16T12:58:42.931Z,3.47
2023-05-16T12:59:44.802Z,3.10
2023-05-16T13:00:46.749Z,2.99
2023-05-16T13:01:48.673Z,2.86
2023-05-16T13:02:52.834Z,3.36
2023-05-16T13:03:54.752Z,3.65
2023-05-16T13:04:56.572Z,2.92
2023-05-16T13:05:58.354Z,3.06
2023-05-16T13:07:00.322Z,3.34
2023-05-16T13:08:02.267Z,2.84
2023-05-16T13:09:04.143Z,3.30
2023-05-16T13:10:06.359Z,3.69
2023-05-16T13:11:08.212Z,4.12
2023-05-16T13:12:10.171Z,3.96
2023-05-16T13:13:13.673Z,3.67
2023-05-16T13:14:15.609Z,3.92
2023-05-16T13:15:17.360Z,4.17
2023-05-16T13:16:19.439Z,4.19
2023-05-16T13:17:21.164Z,4.57
2023-05-16T13:18:23.016Z,5.20
2023-05-16T13:19:24.923Z,4.48
2023-05-16T13:20:26.892Z,5.10
2023-05-16T13:21:28.875Z,7.13
2023-05-16T13:22:30.819Z,4.76
2023-05-16T13:23:32.674Z,4.38
2023-05-16T13:24:34.961Z,4.73
2023-05-16T13:25:36.985Z,5.03
2023-05-16T13:26:39.245Z,4.63
2023-05-16T13:27:41.091Z,4.52
2023-05-16T13:28:42.844Z,3.93
2023-05-16T13:29:44.908Z,4.31
2023-05-16T13:30:47.042Z,3.86
2023-05-16T13:31:49.005Z,4.49
2023-05-16T13:32:50.885Z,4.05
2023-05-16T13:33:55.992Z,3.74
2023-05-16T13:34:57.954Z,3.43
2023-05-16T13:36:00.214Z,3.79
2023-05-16T13:37:02.149Z,3.83
2023-05-16T13:38:04.026Z,3.81
2023-05-16T13:39:05.850Z,3.54
2023-05-16T13:40:08.040Z,3.66
2023-05-16T13:41:10.077Z,2.99
2023-05-16T13:42:12.014Z,3.21